sensor_id;sensor_type;location;lat;lon;timestamp;P1;durP1;ratioP1;P2;durP2;ratioP2
14768;SDS011;7476;49.404;11.152;2023-05-07T00:01:37;4.47;;;3.60;;
14768;SDS011;7476;49.404;11.152;2023-05-07T00:04:04;3.97;;;3.60;;
14768;SDS011;7476;49.404;11.152;2023-05-07T00:06:32;4.37;;;3.97;;
14768;SDS011;7476;49.404;11.152;2023-05-07T00:08:59;5.57;;;3.90;;
14768;SDS011;7476;49.404;11.152;2023-05-07T00:11:27;4.10;;;3.80;;
14768;SDS011;7476;49.404;11.152;2023-05-07T00:13:54;5.03;;;4.07;;
14768;SDS011;7476;49.404;11.152;2023-05-07T00:16:20;4.97;;;4.17;;
14768;SDS011;7476;49.404;11.152;2023-05-07T00:18:47;9.33;;;3.60;;
14768;SDS011;7476;49.404;11.152;2023-05-07T00:21:14;5.63;;;3.90;;
14768;SDS011;7476;49.404;11.152;2023-05-07T00:23:41;5.43;;;3.60;;
14768;SDS011;7476;49.404;11.152;2023-05-07T00:26:07;3.90;;;3.50;;
14768;SDS011;7476;49.404;11.152;2023-05-07T00:28:35;3.93;;;3.63;;
14768;SDS011;7476;49.404;11.152;2023-05-07T00:31:02;7.43;;;3.97;;
14768;SDS011;7476;49.404;11.152;2023-05-07T00:33:28;4.20;;;3.80;;
14768;SDS011;7476;49.404;11.152;2023-05-07T00:35:55;4.20;;;3.80;;
14768;SDS011;7476;49.404;11.152;2023-05-07T00:38:22;5.60;;;4.47;;
14768;SDS011;7476;49.404;11.152;2023-05-07T00:40:48;4.70;;;4.03;;
14768;SDS011;7476;49.404;11.152;2023-05-07T00:43:16;6.17;;;4.07;;
14768;SDS011;7476;49.404;11.152;2023-05-07T00:45:44;5.30;;;4.80;;
14768;SDS011;7476;49.404;11.152;2023-05-07T00:48:11;5.30;;;4.60;;
14768;SDS011;7476;49.404;11.152;2023-05-07T00:50:37;4.90;;;4.40;;
14768;SDS011;7476;49.404;11.152;2023-05-07T00:53:04;4.70;;;4.30;;
14768;SDS011;7476;49.404;11.152;2023-05-07T00:55:32;4.57;;;4.17;;
14768;SDS011;7476;49.404;11.152;2023-05-07T00:57:59;4.60;;;3.93;;
14768;SDS011;7476;49.404;11.152;2023-05-07T01:00:26;4.30;;;3.90;;
14768;SDS011;7476;49.404;11.152;2023-05-07T01:02:54;4.33;;;3.93;;
14768;SDS011;7476;49.404;11.152;2023-05-07T01:05:21;6.90;;;4.13;;
14768;SDS011;7476;49.404;11.152;2023-05-07T01:07:50;3.90;;;3.60;;
14768;SDS011;7476;49.404;11.152;2023-05-07T01:10:18;4.60;;;4.20;;
14768;SDS011;7476;49.404;11.152;2023-05-07T01:12:45;4.20;;;3.80;;
14768;SDS011;7476;49.404;11.152;2023-05-07T01:15:14;5.77;;;3.73;;
14768;SDS011;7476;49.404;11.152;2023-05-07T01:17:41;5.30;;;4.00;;
14768;SDS011;7476;49.404;11.152;2023-05-07T01:20:10;4.40;;;3.70;;
14768;SDS011;7476;49.404;11.152;2023-05-07T01:22:38;4.63;;;3.93;;
14768;SDS011;7476;49.404;11.152;2023-05-07T01:25:06;5.50;;;4.00;;
14768;SDS011;7476;49.404;11.152;2023-05-07T01:27:33;4.43;;;4.03;;
14768;SDS011;7476;49.404;11.152;2023-05-07T01:30:00;6.00;;;3.93;;
14768;SDS011;7476;49.404;11.152;2023-05-07T01:32:27;4.10;;;3.70;;
14768;SDS011;7476;49.404;11.152;2023-05-07T01:34:58;4.10;;;3.70;;
14768;SDS011;7476;49.404;11.152;2023-05-07T01:37:26;4.03;;;3.63;;
14768;SDS011;7476;49.404;11.152;2023-05-07T01:39:54;3.60;;;3.30;;
14768;SDS011;7476;49.404;11.152;2023-05-07T01:42:21;3.80;;;3.50;;
14768;SDS011;7476;49.404;11.152;2023-05-07T01:44:48;5.07;;;4.60;;
14768;SDS011;7476;49.404;11.152;2023-05-07T01:47:15;3.87;;;3.33;;
14768;SDS011;7476;49.404;11.152;2023-05-07T01:49:42;4.73;;;3.30;;
14768;SDS011;7476;49.404;11.152;2023-05-07T01:52:09;4.73;;;3.93;;
14768;SDS011;7476;49.404;11.152;2023-05-07T01:54:36;4.17;;;3.77;;
14768;SDS011;7476;49.404;11.152;2023-05-07T01:57:04;3.93;;;3.53;;
14768;SDS011;7476;49.404;11.152;2023-05-07T01:59:31;4.47;;;3.47;;
14768;SDS011;7476;49.404;11.152;2023-05-07T02:01:57;3.97;;;3.60;;
14768;SDS011;7476;49.404;11.152;2023-05-07T02:04:24;4.73;;;3.50;;
14768;SDS011;7476;49.404;11.152;2023-05-07T02:06:51;4.07;;;3.77;;
14768;SDS011;7476;49.404;11.152;2023-05-07T02:09:17;4.20;;;3.80;;
14768;SDS011;7476;49.404;11.152;2023-05-07T02:11:44;4.67;;;3.90;;
14768;SDS011;7476;49.404;11.152;2023-05-07T02:14:12;4.17;;;3.77;;
14768;SDS011;7476;49.404;11.152;2023-05-07T02:16:40;4.37;;;3.60;;
14768;SDS011;7476;49.404;11.152;2023-05-07T02:19:07;4.00;;;3.70;;
14768;SDS011;7476;49.404;11.152;2023-05-07T02:21:33;3.93;;;3.60;;
14768;SDS011;7476;49.404;11.152;2023-05-07T02:24:00;4.10;;;3.70;;
14768;SDS011;7476;49.404;11.152;2023-05-07T02:26:26;3.27;;;2.97;;
14768;SDS011;7476;49.404;11.152;2023-05-07T02:28:53;3.37;;;3.07;;
14768;SDS011;7476;49.404;11.152;2023-05-07T02:31:21;3.60;;;3.30;;
14768;SDS011;7476;49.404;11.152;2023-05-07T02:33:48;4.80;;;3.83;;
14768;SDS011;7476;49.404;11.152;2023-05-07T02:36:14;3.67;;;3.30;;
14768;SDS011;7476;49.404;11.152;2023-05-07T02:38:41;3.73;;;3.43;;
14768;SDS011;7476;49.404;11.152;2023-05-07T02:41:07;5.57;;;3.73;;
14768;SDS011;7476;49.404;11.152;2023-05-07T02:43:34;3.70;;;3.40;;
14768;SDS011;7476;49.404;11.152;2023-05-07T02:46:01;3.73;;;3.43;;
14768;SDS011;7476;49.404;11.152;2023-05-07T02:48:30;5.00;;;3.70;;
14768;SDS011;7476;49.404;11.152;2023-05-07T02:50:56;3.90;;;3.50;;
14768;SDS011;7476;49.404;11.152;2023-05-07T02:53:23;4.20;;;3.67;;
14768;SDS011;7476;49.404;11.152;2023-05-07T02:55:51;4.23;;;3.83;;
14768;SDS011;7476;49.404;11.152;2023-05-07T02:58:18;4.20;;;3.80;;
14768;SDS011;7476;49.404;11.152;2023-05-07T03:00:44;3.63;;;3.33;;
14768;SDS011;7476;49.404;11.152;2023-05-07T03:03:11;4.13;;;3.73;;
14768;SDS011;7476;49.404;11.152;2023-05-07T03:05:39;5.50;;;3.70;;
14768;SDS011;7476;49.404;11.152;2023-05-07T03:08:06;4.70;;;3.60;;
14768;SDS011;7476;49.404;11.152;2023-05-07T03:10:33;4.13;;;3.63;;
14768;SDS011;7476;49.404;11.152;2023-05-07T03:13:00;4.77;;;3.87;;
14768;SDS011;7476;49.404;11.152;2023-05-07T03:15:27;4.30;;;3.90;;
14768;SDS011;7476;49.404;11.152;2023-05-07T03:17:54;4.17;;;3.77;;
14768;SDS011;7476;49.404;11.152;2023-05-07T03:20:20;3.97;;;3.67;;
14768;SDS011;7476;49.404;11.152;2023-05-07T03:22:48;4.57;;;3.73;;
14768;SDS011;7476;49.404;11.152;2023-05-07T03:25:15;4.93;;;3.67;;
14768;SDS011;7476;49.404;11.152;2023-05-07T03:27:42;4.13;;;3.73;;
14768;SDS011;7476;49.404;11.152;2023-05-07T03:30:09;4.60;;;4.17;;
14768;SDS011;7476;49.404;11.152;2023-05-07T03:32:36;4.70;;;4.30;;
14768;SDS011;7476;49.404;11.152;2023-05-07T03:35:03;4.40;;;3.93;;
14768;SDS011;7476;49.404;11.152;2023-05-07T03:37:30;4.83;;;4.20;;
14768;SDS011;7476;49.404;11.152;2023-05-07T03:39:58;4.47;;;4.10;;
14768;SDS011;7476;49.404;11.152;2023-05-07T03:42:25;5.80;;;4.37;;
14768;SDS011;7476;49.404;11.152;2023-05-07T03:44:52;5.07;;;4.60;;
14768;SDS011;7476;49.404;11.152;2023-05-07T03:47:18;5.47;;;3.90;;
14768;SDS011;7476;49.404;11.152;2023-05-07T03:49:45;4.97;;;3.80;;
14768;SDS011;7476;49.404;11.152;2023-05-07T03:52:13;3.90;;;3.60;;
14768;SDS011;7476;49.404;11.152;2023-05-07T03:54:39;4.17;;;3.77;;
14768;SDS011;7476;49.404;11.152;2023-05-07T03:57:07;5.43;;;3.80;;
14768;SDS011;7476;49.404;11.152;2023-05-07T03:59:34;4.27;;;3.87;;
14768;SDS011;7476;49.404;11.152;2023-05-07T04:02:00;4.43;;;4.03;;
14768;SDS011;7476;49.404;11.152;2023-05-07T04:04:27;4.70;;;4.30;;
14768;SDS011;7476;49.404;11.152;2023-05-07T04:06:57;4.67;;;4.20;;
14768;SDS011;7476;49.404;11.152;2023-05-07T04:09:24;4.30;;;3.90;;
14768;SDS011;7476;49.404;11.152;2023-05-07T04:11:51;6.43;;;4.50;;
14768;SDS011;7476;49.404;11.152;2023-05-07T04:14:19;4.83;;;4.40;;
14768;SDS011;7476;49.404;11.152;2023-05-07T04:16:45;5.17;;;4.67;;
14768;SDS011;7476;49.404;11.152;2023-05-07T04:19:12;9.10;;;5.80;;
14768;SDS011;7476;49.404;11.152;2023-05-07T04:21:39;5.43;;;4.93;;
14768;SDS011;7476;49.404;11.152;2023-05-07T04:24:05;5.57;;;5.07;;
14768;SDS011;7476;49.404;11.152;2023-05-07T04:26:33;5.60;;;5.10;;
14768;SDS011;7476;49.404;11.152;2023-05-07T04:28:59;5.57;;;4.83;;
14768;SDS011;7476;49.404;11.152;2023-05-07T04:31:27;5.87;;;5.33;;
14768;SDS011;7476;49.404;11.152;2023-05-07T04:33:55;5.50;;;5.00;;
14768;SDS011;7476;49.404;11.152;2023-05-07T04:36:22;6.10;;;5.50;;
14768;SDS011;7476;49.404;11.152;2023-05-07T04:38:49;5.63;;;5.07;;
14768;SDS011;7476;49.404;11.152;2023-05-07T04:41:15;6.90;;;5.30;;
14768;SDS011;7476;49.404;11.152;2023-05-07T04:43:42;5.77;;;5.17;;
14768;SDS011;7476;49.404;11.152;2023-05-07T04:46:09;8.37;;;5.07;;
14768;SDS011;7476;49.404;11.152;2023-05-07T04:48:37;6.20;;;4.60;;
14768;SDS011;7476;49.404;11.152;2023-05-07T04:51:04;5.73;;;5.23;;
14768;SDS011;7476;49.404;11.152;2023-05-07T04:53:31;6.07;;;5.10;;
14768;SDS011;7476;49.404;11.152;2023-05-07T04:55:58;5.97;;;5.23;;
14768;SDS011;7476;49.404;11.152;2023-05-07T04:58:24;5.47;;;4.97;;
14768;SDS011;7476;49.404;11.152;2023-05-07T05:00:51;5.47;;;4.97;;
14768;SDS011;7476;49.404;11.152;2023-05-07T05:03:18;5.40;;;4.90;;
14768;SDS011;7476;49.404;11.152;2023-05-07T05:05:46;5.50;;;5.00;;
14768;SDS011;7476;49.404;11.152;2023-05-07T05:08:14;5.60;;;5.10;;
14768;SDS011;7476;49.404;11.152;2023-05-07T05:10:42;6.47;;;5.87;;
14768;SDS011;7476;49.404;11.152;2023-05-07T05:13:08;6.23;;;5.70;;
14768;SDS011;7476;49.404;11.152;2023-05-07T05:15:37;6.70;;;6.00;;
14768;SDS011;7476;49.404;11.152;2023-05-07T05:18:04;8.67;;;6.90;;
14768;SDS011;7476;49.404;11.152;2023-05-07T05:20:31;7.10;;;6.37;;
14768;SDS011;7476;49.404;11.152;2023-05-07T05:22:59;9.13;;;6.60;;
14768;SDS011;7476;49.404;11.152;2023-05-07T05:25:26;8.43;;;7.73;;
14768;SDS011;7476;49.404;11.152;2023-05-07T05:27:53;8.60;;;7.70;;
14768;SDS011;7476;49.404;11.152;2023-05-07T05:30:20;7.80;;;7.00;;
14768;SDS011;7476;49.404;11.152;2023-05-07T05:32:46;7.97;;;7.17;;
14768;SDS011;7476;49.404;11.152;2023-05-07T05:35:13;7.97;;;7.17;;
14768;SDS011;7476;49.404;11.152;2023-05-07T05:37:40;7.33;;;6.60;;
14768;SDS011;7476;49.404;11.152;2023-05-07T05:40:09;7.10;;;6.40;;
14768;SDS011;7476;49.404;11.152;2023-05-07T05:42:36;7.37;;;6.60;;
14768;SDS011;7476;49.404;11.152;2023-05-07T05:45:03;5.73;;;5.23;;
14768;SDS011;7476;49.404;11.152;2023-05-07T05:47:30;6.57;;;5.97;;
14768;SDS011;7476;49.404;11.152;2023-05-07T05:49:57;6.63;;;5.50;;
14768;SDS011;7476;49.404;11.152;2023-05-07T05:52:23;7.23;;;5.60;;
14768;SDS011;7476;49.404;11.152;2023-05-07T05:54:50;6.77;;;5.90;;
14768;SDS011;7476;49.404;11.152;2023-05-07T05:57:18;7.30;;;5.90;;
14768;SDS011;7476;49.404;11.152;2023-05-07T05:59:45;6.40;;;5.80;;
14768;SDS011;7476;49.404;11.152;2023-05-07T06:02:12;6.17;;;5.63;;
14768;SDS011;7476;49.404;11.152;2023-05-07T06:04:39;7.80;;;6.40;;
14768;SDS011;7476;49.404;11.152;2023-05-07T06:07:07;6.93;;;5.83;;
14768;SDS011;7476;49.404;11.152;2023-05-07T06:09:34;6.07;;;5.47;;
14768;SDS011;7476;49.404;11.152;2023-05-07T06:12:00;6.53;;;5.93;;
14768;SDS011;7476;49.404;11.152;2023-05-07T06:14:28;6.63;;;5.93;;
14768;SDS011;7476;49.404;11.152;2023-05-07T06:16:55;6.60;;;5.90;;
14768;SDS011;7476;49.404;11.152;2023-05-07T06:19:22;9.10;;;5.80;;
14768;SDS011;7476;49.404;11.152;2023-05-07T06:21:51;8.17;;;6.67;;
14768;SDS011;7476;49.404;11.152;2023-05-07T06:24:18;7.00;;;6.30;;
14768;SDS011;7476;49.404;11.152;2023-05-07T06:26:44;6.70;;;6.00;;
14768;SDS011;7476;49.404;11.152;2023-05-07T06:29:11;6.20;;;5.60;;
14768;SDS011;7476;49.404;11.152;2023-05-07T06:31:39;6.43;;;5.83;;
14768;SDS011;7476;49.404;11.152;2023-05-07T06:34:06;6.00;;;5.47;;
14768;SDS011;7476;49.404;11.152;2023-05-07T06:36:33;6.77;;;6.17;;
14768;SDS011;7476;49.404;11.152;2023-05-07T06:39:00;6.20;;;5.60;;
14768;SDS011;7476;49.404;11.152;2023-05-07T06:41:26;7.87;;;6.10;;
14768;SDS011;7476;49.404;11.152;2023-05-07T06:43:53;7.67;;;5.70;;
14768;SDS011;7476;49.404;11.152;2023-05-07T06:46:20;6.60;;;5.90;;
14768;SDS011;7476;49.404;11.152;2023-05-07T06:48:48;6.47;;;5.87;;
14768;SDS011;7476;49.404;11.152;2023-05-07T06:51:14;6.50;;;5.90;;
14768;SDS011;7476;49.404;11.152;2023-05-07T06:53:41;6.37;;;5.40;;
14768;SDS011;7476;49.404;11.152;2023-05-07T06:56:08;6.57;;;5.67;;
14768;SDS011;7476;49.404;11.152;2023-05-07T06:58:34;6.73;;;5.97;;
14768;SDS011;7476;49.404;11.152;2023-05-07T07:01:01;6.17;;;5.63;;
14768;SDS011;7476;49.404;11.152;2023-05-07T07:03:28;6.03;;;5.43;;
14768;SDS011;7476;49.404;11.152;2023-05-07T07:05:56;6.73;;;6.03;;
14768;SDS011;7476;49.404;11.152;2023-05-07T07:08:22;6.20;;;5.60;;
14768;SDS011;7476;49.404;11.152;2023-05-07T07:10:49;6.83;;;6.23;;
14768;SDS011;7476;49.404;11.152;2023-05-07T07:13:16;6.43;;;5.67;;
14768;SDS011;7476;49.404;11.152;2023-05-07T07:15:43;6.63;;;6.00;;
14768;SDS011;7476;49.404;11.152;2023-05-07T07:18:09;6.10;;;5.50;;
14768;SDS011;7476;49.404;11.152;2023-05-07T07:20:36;5.87;;;5.33;;
14768;SDS011;7476;49.404;11.152;2023-05-07T07:23:04;6.07;;;5.47;;
14768;SDS011;7476;49.404;11.152;2023-05-07T07:25:31;6.17;;;5.63;;
14768;SDS011;7476;49.404;11.152;2023-05-07T07:27:57;5.67;;;5.17;;
14768;SDS011;7476;49.404;11.152;2023-05-07T07:30:24;6.13;;;5.53;;
14768;SDS011;7476;49.404;11.152;2023-05-07T07:32:51;6.23;;;5.30;;
14768;SDS011;7476;49.404;11.152;2023-05-07T07:35:18;5.90;;;5.30;;
14768;SDS011;7476;49.404;11.152;2023-05-07T07:37:44;6.13;;;5.53;;
14768;SDS011;7476;49.404;11.152;2023-05-07T07:40:13;5.50;;;5.00;;
14768;SDS011;7476;49.404;11.152;2023-05-07T07:42:40;5.87;;;5.27;;
14768;SDS011;7476;49.404;11.152;2023-05-07T07:45:07;5.73;;;4.90;;
14768;SDS011;7476;49.404;11.152;2023-05-07T07:47:34;5.83;;;5.30;;
14768;SDS011;7476;49.404;11.152;2023-05-07T07:50:01;6.73;;;5.07;;
14768;SDS011;7476;49.404;11.152;2023-05-07T07:52:28;8.20;;;5.03;;
14768;SDS011;7476;49.404;11.152;2023-05-07T07:54:54;5.27;;;4.87;;
14768;SDS011;7476;49.404;11.152;2023-05-07T07:57:22;5.63;;;5.13;;
14768;SDS011;7476;49.404;11.152;2023-05-07T07:59:49;5.87;;;4.77;;
14768;SDS011;7476;49.404;11.152;2023-05-07T08:02:16;4.80;;;4.37;;
14768;SDS011;7476;49.404;11.152;2023-05-07T08:04:43;5.20;;;4.77;;
14768;SDS011;7476;49.404;11.152;2023-05-07T08:07:10;5.00;;;4.50;;
14768;SDS011;7476;49.404;11.152;2023-05-07T08:09:37;4.87;;;4.37;;
14768;SDS011;7476;49.404;11.152;2023-05-07T08:12:04;5.70;;;4.37;;
14768;SDS011;7476;49.404;11.152;2023-05-07T08:14:33;4.63;;;4.23;;
14768;SDS011;7476;49.404;11.152;2023-05-07T08:17:01;5.43;;;4.70;;
14768;SDS011;7476;49.404;11.152;2023-05-07T08:19:28;5.00;;;4.53;;
14768;SDS011;7476;49.404;11.152;2023-05-07T08:21:55;5.33;;;4.87;;
14768;SDS011;7476;49.404;11.152;2023-05-07T08:24:21;4.60;;;4.03;;
14768;SDS011;7476;49.404;11.152;2023-05-07T08:26:48;5.37;;;4.80;;
14768;SDS011;7476;49.404;11.152;2023-05-07T08:29:15;5.40;;;4.90;;
14768;SDS011;7476;49.404;11.152;2023-05-07T08:31:43;4.90;;;4.40;;
14768;SDS011;7476;49.404;11.152;2023-05-07T08:34:10;5.03;;;4.57;;
14768;SDS011;7476;49.404;11.152;2023-05-07T08:36:36;6.10;;;4.90;;
14768;SDS011;7476;49.404;11.152;2023-05-07T08:39:03;5.07;;;4.57;;
14768;SDS011;7476;49.404;11.152;2023-05-07T08:41:30;5.63;;;5.13;;
14768;SDS011;7476;49.404;11.152;2023-05-07T08:43:57;4.93;;;4.43;;
14768;SDS011;7476;49.404;11.152;2023-05-07T08:46:25;4.80;;;4.30;;
14768;SDS011;7476;49.404;11.152;2023-05-07T08:48:58;4.53;;;4.13;;
14768;SDS011;7476;49.404;11.152;2023-05-07T08:51:25;5.00;;;4.47;;
14768;SDS011;7476;49.404;11.152;2023-05-07T08:53:52;5.00;;;4.50;;
14768;SDS011;7476;49.404;11.152;2023-05-07T08:56:18;4.87;;;4.47;;
14768;SDS011;7476;49.404;11.152;2023-05-07T08:58:46;5.03;;;4.50;;
14768;SDS011;7476;49.404;11.152;2023-05-07T09:01:14;4.03;;;3.57;;
14768;SDS011;7476;49.404;11.152;2023-05-07T09:03:41;4.47;;;4.07;;
14768;SDS011;7476;49.404;11.152;2023-05-07T09:06:13;6.93;;;4.27;;
14768;SDS011;7476;49.404;11.152;2023-05-07T09:08:40;4.13;;;3.73;;
14768;SDS011;7476;49.404;11.152;2023-05-07T09:11:06;3.97;;;3.67;;
14768;SDS011;7476;49.404;11.152;2023-05-07T09:13:33;4.30;;;3.63;;
14768;SDS011;7476;49.404;11.152;2023-05-07T09:16:09;4.00;;;3.60;;
14768;SDS011;7476;49.404;11.152;2023-05-07T09:18:40;4.30;;;4.00;;
14768;SDS011;7476;49.404;11.152;2023-05-07T09:21:09;4.40;;;4.00;;
14768;SDS011;7476;49.404;11.152;2023-05-07T09:23:38;4.10;;;3.63;;
14768;SDS011;7476;49.404;11.152;2023-05-07T09:26:06;3.87;;;3.57;;
14768;SDS011;7476;49.404;11.152;2023-05-07T09:28:37;3.87;;;3.57;;
14768;SDS011;7476;49.404;11.152;2023-05-07T09:31:05;3.67;;;3.37;;
14768;SDS011;7476;49.404;11.152;2023-05-07T09:33:31;3.60;;;3.30;;
14768;SDS011;7476;49.404;11.152;2023-05-07T09:35:58;3.80;;;3.50;;
14768;SDS011;7476;49.404;11.152;2023-05-07T09:38:28;6.00;;;3.80;;
14768;SDS011;7476;49.404;11.152;2023-05-07T09:41:03;3.73;;;3.40;;
14768;SDS011;7476;49.404;11.152;2023-05-07T09:43:33;3.87;;;3.47;;
14768;SDS011;7476;49.404;11.152;2023-05-07T09:48:35;3.17;;;2.97;;
14768;SDS011;7476;49.404;11.152;2023-05-07T09:51:06;4.43;;;3.23;;
14768;SDS011;7476;49.404;11.152;2023-05-07T09:53:37;3.10;;;2.80;;
14768;SDS011;7476;49.404;11.152;2023-05-07T09:56:06;3.10;;;2.80;;
14768;SDS011;7476;49.404;11.152;2023-05-07T09:58:33;3.60;;;3.10;;
14768;SDS011;7476;49.404;11.152;2023-05-07T10:01:04;4.03;;;3.30;;
14768;SDS011;7476;49.404;11.152;2023-05-07T10:03:32;3.80;;;3.50;;
14768;SDS011;7476;49.404;11.152;2023-05-07T10:06:01;3.70;;;3.40;;
14768;SDS011;7476;49.404;11.152;2023-05-07T10:08:29;5.00;;;3.23;;
14768;SDS011;7476;49.404;11.152;2023-05-07T10:10:56;3.90;;;3.60;;
14768;SDS011;7476;49.404;11.152;2023-05-07T10:13:26;4.67;;;3.47;;
14768;SDS011;7476;49.404;11.152;2023-05-07T10:15:53;3.80;;;3.50;;
14768;SDS011;7476;49.404;11.152;2023-05-07T10:18:21;3.93;;;3.63;;
14768;SDS011;7476;49.404;11.152;2023-05-07T10:20:54;4.20;;;3.70;;
14768;SDS011;7476;49.404;11.152;2023-05-07T10:23:23;4.27;;;3.80;;
14768;SDS011;7476;49.404;11.152;2023-05-07T10:25:50;3.77;;;3.47;;
14768;SDS011;7476;49.404;11.152;2023-05-07T10:28:18;4.53;;;4.03;;
14768;SDS011;7476;49.404;11.152;2023-05-07T10:30:51;3.70;;;3.40;;
14768;SDS011;7476;49.404;11.152;2023-05-07T10:33:27;3.50;;;3.20;;
14768;SDS011;7476;49.404;11.152;2023-05-07T10:35:57;4.60;;;3.13;;
14768;SDS011;7476;49.404;11.152;2023-05-07T10:38:26;4.20;;;2.87;;
14768;SDS011;7476;49.404;11.152;2023-05-07T10:40:53;3.60;;;3.30;;
14768;SDS011;7476;49.404;11.152;2023-05-07T10:43:20;4.20;;;3.03;;
14768;SDS011;7476;49.404;11.152;2023-05-07T10:51:36;3.73;;;3.10;;
14768;SDS011;7476;49.404;11.152;2023-05-07T10:54:19;3.23;;;2.93;;
14768;SDS011;7476;49.404;11.152;2023-05-07T10:56:47;3.00;;;2.77;;
14768;SDS011;7476;49.404;11.152;2023-05-07T11:02:10;3.40;;;3.10;;
14768;SDS011;7476;49.404;11.152;2023-05-07T11:04:39;3.93;;;3.47;;
14768;SDS011;7476;49.404;11.152;2023-05-07T11:09:59;3.40;;;3.10;;
14768;SDS011;7476;49.404;11.152;2023-05-07T11:12:51;3.03;;;2.83;;
14768;SDS011;7476;49.404;11.152;2023-05-07T11:15:35;3.30;;;3.00;;
14768;SDS011;7476;49.404;11.152;2023-05-07T11:18:09;3.47;;;3.17;;
14768;SDS011;7476;49.404;11.152;2023-05-07T11:26:40;2.80;;;2.43;;
14768;SDS011;7476;49.404;11.152;2023-05-07T11:29:13;3.10;;;2.87;;
14768;SDS011;7476;49.404;11.152;2023-05-07T11:31:41;3.77;;;3.47;;
14768;SDS011;7476;49.404;11.152;2023-05-07T11:34:09;3.60;;;3.30;;
14768;SDS011;7476;49.404;11.152;2023-05-07T11:36:41;3.27;;;2.97;;
14768;SDS011;7476;49.404;11.152;2023-05-07T11:39:25;4.17;;;2.73;;
14768;SDS011;7476;49.404;11.152;2023-05-07T11:41:53;3.30;;;3.00;;
14768;SDS011;7476;49.404;11.152;2023-05-07T11:44:20;4.70;;;2.80;;
14768;SDS011;7476;49.404;11.152;2023-05-07T11:46:47;4.20;;;3.23;;
14768;SDS011;7476;49.404;11.152;2023-05-07T11:49:16;3.40;;;3.10;;
14768;SDS011;7476;49.404;11.152;2023-05-07T11:51:43;3.23;;;2.93;;
14768;SDS011;7476;49.404;11.152;2023-05-07T11:54:11;3.10;;;2.80;;
14768;SDS011;7476;49.404;11.152;2023-05-07T11:56:42;3.30;;;3.03;;
14768;SDS011;7476;49.404;11.152;2023-05-07T11:59:09;3.07;;;2.77;;
14768;SDS011;7476;49.404;11.152;2023-05-07T12:01:36;2.80;;;2.60;;
14768;SDS011;7476;49.404;11.152;2023-05-07T12:04:03;2.73;;;2.53;;
14768;SDS011;7476;49.404;11.152;2023-05-07T12:06:35;2.97;;;2.67;;
14768;SDS011;7476;49.404;11.152;2023-05-07T12:09:02;2.93;;;2.57;;
14768;SDS011;7476;49.404;11.152;2023-05-07T12:11:30;3.13;;;2.83;;
14768;SDS011;7476;49.404;11.152;2023-05-07T12:13:56;3.17;;;2.93;;
14768;SDS011;7476;49.404;11.152;2023-05-07T12:16:23;3.97;;;3.60;;
14768;SDS011;7476;49.404;11.152;2023-05-07T12:18:50;3.60;;;3.30;;
14768;SDS011;7476;49.404;11.152;2023-05-07T12:21:17;3.70;;;2.73;;
14768;SDS011;7476;49.404;11.152;2023-05-07T12:23:46;3.40;;;2.70;;
14768;SDS011;7476;49.404;11.152;2023-05-07T12:26:13;3.23;;;2.93;;
14768;SDS011;7476;49.404;11.152;2023-05-07T12:28:39;3.93;;;3.10;;
14768;SDS011;7476;49.404;11.152;2023-05-07T12:31:06;3.30;;;3.03;;
14768;SDS011;7476;49.404;11.152;2023-05-07T12:33:34;3.40;;;3.10;;
14768;SDS011;7476;49.404;11.152;2023-05-07T12:36:03;4.10;;;3.70;;
14768;SDS011;7476;49.404;11.152;2023-05-07T12:38:36;3.47;;;3.17;;
14768;SDS011;7476;49.404;11.152;2023-05-07T12:41:05;3.30;;;3.00;;
14768;SDS011;7476;49.404;11.152;2023-05-07T12:43:32;3.87;;;2.97;;
14768;SDS011;7476;49.404;11.152;2023-05-07T12:46:00;3.40;;;3.10;;
14768;SDS011;7476;49.404;11.152;2023-05-07T12:48:27;3.33;;;3.03;;
14768;SDS011;7476;49.404;11.152;2023-05-07T12:50:55;3.40;;;3.10;;
14768;SDS011;7476;49.404;11.152;2023-05-07T12:53:23;3.57;;;3.07;;
14768;SDS011;7476;49.404;11.152;2023-05-07T12:55:51;4.73;;;3.70;;
14768;SDS011;7476;49.404;11.152;2023-05-07T12:58:20;4.00;;;3.30;;
14768;SDS011;7476;49.404;11.152;2023-05-07T13:00:50;3.50;;;3.20;;
14768;SDS011;7476;49.404;11.152;2023-05-07T13:03:21;3.93;;;3.40;;
14768;SDS011;7476;49.404;11.152;2023-05-07T13:05:49;4.10;;;3.00;;
14768;SDS011;7476;49.404;11.152;2023-05-07T13:08:23;3.30;;;2.73;;
14768;SDS011;7476;49.404;11.152;2023-05-07T13:10:51;3.37;;;2.37;;
14768;SDS011;7476;49.404;11.152;2023-05-07T13:13:18;3.40;;;2.70;;
14768;SDS011;7476;49.404;11.152;2023-05-07T13:15:46;4.43;;;2.83;;
14768;SDS011;7476;49.404;11.152;2023-05-07T13:18:13;3.13;;;2.83;;
14768;SDS011;7476;49.404;11.152;2023-05-07T13:20:39;3.10;;;2.80;;
14768;SDS011;7476;49.404;11.152;2023-05-07T13:23:06;3.37;;;3.07;;
14768;SDS011;7476;49.404;11.152;2023-05-07T13:25:33;3.92;;;2.67;;
14768;SDS011;7476;49.404;11.152;2023-05-07T13:28:00;3.38;;;3.08;;
14768;SDS011;7476;49.404;11.152;2023-05-07T13:30:27;2.80;;;2.58;;
14768;SDS011;7476;49.404;11.152;2023-05-07T13:32:56;3.03;;;2.83;;
14768;SDS011;7476;49.404;11.152;2023-05-07T13:35:22;3.20;;;2.90;;
14768;SDS011;7476;49.404;11.152;2023-05-07T13:37:49;3.22;;;2.92;;
14768;SDS011;7476;49.404;11.152;2023-05-07T13:40:17;2.88;;;2.60;;
14768;SDS011;7476;49.404;11.152;2023-05-07T13:42:43;2.88;;;2.53;;
14768;SDS011;7476;49.404;11.152;2023-05-07T13:45:10;2.88;;;2.67;;
14768;SDS011;7476;49.404;11.152;2023-05-07T13:47:39;3.38;;;2.92;;
14768;SDS011;7476;49.404;11.152;2023-05-07T13:50:07;3.72;;;2.88;;
14768;SDS011;7476;49.404;11.152;2023-05-07T13:52:36;3.10;;;2.90;;
14768;SDS011;7476;49.404;11.152;2023-05-07T13:55:03;3.58;;;3.22;;
14768;SDS011;7476;49.404;11.152;2023-05-07T13:57:30;3.17;;;2.88;;
14768;SDS011;7476;49.404;11.152;2023-05-07T13:59:57;3.03;;;2.83;;
14768;SDS011;7476;49.404;11.152;2023-05-07T14:02:23;3.30;;;3.00;;
14768;SDS011;7476;49.404;11.152;2023-05-07T14:04:50;2.80;;;2.60;;
14768;SDS011;7476;49.404;11.152;2023-05-07T14:07:18;3.17;;;2.90;;
14768;SDS011;7476;49.404;11.152;2023-05-07T14:09:45;3.87;;;3.20;;
14768;SDS011;7476;49.404;11.152;2023-05-07T14:12:11;3.70;;;3.40;;
14768;SDS011;7476;49.404;11.152;2023-05-07T14:14:38;4.23;;;3.50;;
14768;SDS011;7476;49.404;11.152;2023-05-07T14:17:04;3.83;;;3.53;;
14768;SDS011;7476;49.404;11.152;2023-05-07T14:19:31;3.90;;;3.50;;
14768;SDS011;7476;49.404;11.152;2023-05-07T14:21:58;3.77;;;3.47;;
14768;SDS011;7476;49.404;11.152;2023-05-07T14:24:26;4.87;;;3.37;;
14768;SDS011;7476;49.404;11.152;2023-05-07T14:26:52;3.90;;;3.50;;
14768;SDS011;7476;49.404;11.152;2023-05-07T14:29:19;4.00;;;3.60;;
14768;SDS011;7476;49.404;11.152;2023-05-07T14:31:47;3.47;;;3.17;;
14768;SDS011;7476;49.404;11.152;2023-05-07T14:34:13;5.47;;;3.37;;
14768;SDS011;7476;49.404;11.152;2023-05-07T14:36:40;4.97;;;3.60;;
14768;SDS011;7476;49.404;11.152;2023-05-07T14:39:07;3.60;;;3.30;;
14768;SDS011;7476;49.404;11.152;2023-05-07T14:41:35;4.30;;;3.90;;
14768;SDS011;7476;49.404;11.152;2023-05-07T14:44:02;4.53;;;3.47;;
14768;SDS011;7476;49.404;11.152;2023-05-07T14:46:29;4.07;;;3.77;;
14768;SDS011;7476;49.404;11.152;2023-05-07T14:48:56;3.90;;;3.60;;
14768;SDS011;7476;49.404;11.152;2023-05-07T14:51:22;4.13;;;3.73;;
14768;SDS011;7476;49.404;11.152;2023-05-07T14:53:50;3.93;;;3.53;;
14768;SDS011;7476;49.404;11.152;2023-05-07T14:56:17;4.13;;;3.83;;
14768;SDS011;7476;49.404;11.152;2023-05-07T14:58:45;4.03;;;3.70;;
14768;SDS011;7476;49.404;11.152;2023-05-07T15:01:13;4.07;;;3.50;;
14768;SDS011;7476;49.404;11.152;2023-05-07T15:03:40;3.80;;;3.50;;
14768;SDS011;7476;49.404;11.152;2023-05-07T15:06:06;4.63;;;4.23;;
14768;SDS011;7476;49.404;11.152;2023-05-07T15:08:33;4.67;;;3.40;;
14768;SDS011;7476;49.404;11.152;2023-05-07T15:10:59;4.33;;;3.93;;